sensor_id;sensor_type;location;lat;lon;timestamp;P1;durP1;ratioP1;P2;durP2;ratioP2
54929;SDS011;40833;53.238;6.576;2022-07-05T00:01:55;2.83;;;1.20;;
54929;SDS011;40833;53.238;6.576;2022-07-05T00:04:20;5.93;;;1.17;;
54929;SDS011;40833;53.238;6.576;2022-07-05T00:06:46;4.80;;;1.30;;
54929;SDS011;40833;53.238;6.576;2022-07-05T00:09:30;4.60;;;1.10;;
54929;SDS011;40833;53.238;6.576;2022-07-05T00:11:56;7.20;;;1.63;;
54929;SDS011;40833;53.238;6.576;2022-07-05T00:14:21;3.50;;;1.50;;
54929;SDS011;40833;53.238;6.576;2022-07-05T00:16:47;2.87;;;1.10;;
54929;SDS011;40833;53.238;6.576;2022-07-05T00:19:14;5.03;;;1.23;;
54929;SDS011;40833;53.238;6.576;2022-07-05T00:21:40;3.47;;;1.57;;
54929;SDS011;40833;53.238;6.576;2022-07-05T00:24:06;5.70;;;1.50;;
54929;SDS011;40833;53.238;6.576;2022-07-05T00:26:32;2.27;;;1.40;;
54929;SDS011;40833;53.238;6.576;2022-07-05T00:28:57;3.77;;;1.50;;
54929;SDS011;40833;53.238;6.576;2022-07-05T00:31:23;1.50;;;1.30;;
54929;SDS011;40833;53.238;6.576;2022-07-05T00:33:49;6.33;;;1.80;;
54929;SDS011;40833;53.238;6.576;2022-07-05T00:36:14;4.97;;;1.60;;
54929;SDS011;40833;53.238;6.576;2022-07-05T00:38:40;3.43;;;1.43;;
54929;SDS011;40833;53.238;6.576;2022-07-05T00:41:06;1.87;;;1.57;;
54929;SDS011;40833;53.238;6.576;2022-07-05T00:43:31;4.60;;;1.90;;
54929;SDS011;40833;53.238;6.576;2022-07-05T00:45:57;3.70;;;1.53;;
54929;SDS011;40833;53.238;6.576;2022-07-05T00:48:23;4.10;;;1.43;;
54929;SDS011;40833;53.238;6.576;2022-07-05T00:50:49;1.80;;;1.50;;
54929;SDS011;40833;53.238;6.576;2022-07-05T00:53:15;5.20;;;1.30;;
54929;SDS011;40833;53.238;6.576;2022-07-05T00:55:42;3.53;;;1.70;;
54929;SDS011;40833;53.238;6.576;2022-07-05T00:58:09;3.90;;;1.67;;
54929;SDS011;40833;53.238;6.576;2022-07-05T01:00:35;1.90;;;1.50;;
54929;SDS011;40833;53.238;6.576;2022-07-05T01:03:02;3.50;;;1.60;;
54929;SDS011;40833;53.238;6.576;2022-07-05T01:05:28;3.00;;;1.40;;
54929;SDS011;40833;53.238;6.576;2022-07-05T01:07:55;2.57;;;1.70;;
54929;SDS011;40833;53.238;6.576;2022-07-05T01:10:22;3.43;;;1.57;;
54929;SDS011;40833;53.238;6.576;2022-07-05T01:12:48;2.90;;;1.70;;
54929;SDS011;40833;53.238;6.576;2022-07-05T01:15:14;5.90;;;1.73;;
54929;SDS011;40833;53.238;6.576;2022-07-05T01:17:40;3.60;;;1.83;;
54929;SDS011;40833;53.238;6.576;2022-07-05T01:20:06;5.30;;;1.53;;
54929;SDS011;40833;53.238;6.576;2022-07-05T01:22:47;2.30;;;1.40;;
54929;SDS011;40833;53.238;6.576;2022-07-05T01:25:19;5.07;;;1.57;;
54929;SDS011;40833;53.238;6.576;2022-07-05T01:27:48;4.03;;;1.83;;
54929;SDS011;40833;53.238;6.576;2022-07-05T01:30:15;5.67;;;1.90;;
54929;SDS011;40833;53.238;6.576;2022-07-05T01:32:42;6.83;;;1.63;;
54929;SDS011;40833;53.238;6.576;2022-07-05T01:35:09;4.10;;;1.67;;
54929;SDS011;40833;53.238;6.576;2022-07-05T01:37:35;3.73;;;2.00;;
54929;SDS011;40833;53.238;6.576;2022-07-05T01:40:02;4.50;;;1.83;;
54929;SDS011;40833;53.238;6.576;2022-07-05T01:42:28;5.47;;;2.03;;
54929;SDS011;40833;53.238;6.576;2022-07-05T01:44:54;6.37;;;2.20;;
54929;SDS011;40833;53.238;6.576;2022-07-05T01:47:20;1.77;;;1.67;;
54929;SDS011;40833;53.238;6.576;2022-07-05T01:49:46;4.37;;;1.90;;
54929;SDS011;40833;53.238;6.576;2022-07-05T01:52:14;2.37;;;1.97;;
54929;SDS011;40833;53.238;6.576;2022-07-05T01:54:41;7.73;;;2.23;;
54929;SDS011;40833;53.238;6.576;2022-07-05T01:57:08;3.30;;;2.30;;
54929;SDS011;40833;53.238;6.576;2022-07-05T01:59:35;4.53;;;2.07;;
54929;SDS011;40833;53.238;6.576;2022-07-05T02:02:02;3.63;;;2.40;;
54929;SDS011;40833;53.238;6.576;2022-07-05T02:04:29;5.60;;;2.50;;
54929;SDS011;40833;53.238;6.576;2022-07-05T02:06:56;3.23;;;1.90;;
54929;SDS011;40833;53.238;6.576;2022-07-05T02:09:22;9.33;;;2.60;;
54929;SDS011;40833;53.238;6.576;2022-07-05T02:11:48;4.00;;;2.50;;
54929;SDS011;40833;53.238;6.576;2022-07-05T02:14:13;4.10;;;2.70;;
54929;SDS011;40833;53.238;6.576;2022-07-05T02:16:39;3.80;;;2.93;;
54929;SDS011;40833;53.238;6.576;2022-07-05T02:19:05;4.80;;;2.80;;
54929;SDS011;40833;53.238;6.576;2022-07-05T02:21:31;5.20;;;2.93;;
54929;SDS011;40833;53.238;6.576;2022-07-05T02:23:56;3.07;;;2.67;;
54929;SDS011;40833;53.238;6.576;2022-07-05T02:26:22;5.17;;;2.87;;
54929;SDS011;40833;53.238;6.576;2022-07-05T02:28:48;3.87;;;3.20;;
54929;SDS011;40833;53.238;6.576;2022-07-05T02:31:14;3.60;;;2.93;;
54929;SDS011;40833;53.238;6.576;2022-07-05T02:33:41;6.03;;;3.50;;
54929;SDS011;40833;53.238;6.576;2022-07-05T02:38:34;6.73;;;3.30;;
54929;SDS011;40833;53.238;6.576;2022-07-05T02:41:00;3.50;;;3.20;;
54929;SDS011;40833;53.238;6.576;2022-07-05T02:43:25;4.43;;;3.00;;
54929;SDS011;40833;53.238;6.576;2022-07-05T02:45:51;4.03;;;3.60;;
54929;SDS011;40833;53.238;6.576;2022-07-05T02:48:17;3.60;;;3.10;;
54929;SDS011;40833;53.238;6.576;2022-07-05T02:50:42;3.40;;;3.10;;
54929;SDS011;40833;53.238;6.576;2022-07-05T02:53:08;5.43;;;3.50;;
54929;SDS011;40833;53.238;6.576;2022-07-05T02:55:34;6.17;;;3.20;;
54929;SDS011;40833;53.238;6.576;2022-07-05T02:58:00;7.53;;;4.00;;
54929;SDS011;40833;53.238;6.576;2022-07-05T03:00:25;4.63;;;3.90;;
54929;SDS011;40833;53.238;6.576;2022-07-05T03:02:51;4.70;;;3.77;;
54929;SDS011;40833;53.238;6.576;2022-07-05T03:05:17;6.23;;;3.57;;
54929;SDS011;40833;53.238;6.576;2022-07-05T03:07:42;7.17;;;4.07;;
54929;SDS011;40833;53.238;6.576;2022-07-05T03:10:08;5.43;;;3.57;;
54929;SDS011;40833;53.238;6.576;2022-07-05T03:12:34;4.67;;;3.80;;
54929;SDS011;40833;53.238;6.576;2022-07-05T03:14:59;7.60;;;3.83;;
54929;SDS011;40833;53.238;6.576;2022-07-05T03:17:25;5.40;;;4.10;;
54929;SDS011;40833;53.238;6.576;2022-07-05T03:19:51;6.33;;;3.90;;
54929;SDS011;40833;53.238;6.576;2022-07-05T03:22:16;3.90;;;3.50;;
54929;SDS011;40833;53.238;6.576;2022-07-05T03:24:42;3.73;;;3.40;;
54929;SDS011;40833;53.238;6.576;2022-07-05T03:27:07;5.33;;;3.93;;
54929;SDS011;40833;53.238;6.576;2022-07-05T03:29:33;6.90;;;3.40;;
54929;SDS011;40833;53.238;6.576;2022-07-05T03:31:59;5.87;;;4.20;;
54929;SDS011;40833;53.238;6.576;2022-07-05T03:34:25;6.23;;;4.00;;
54929;SDS011;40833;53.238;6.576;2022-07-05T03:36:50;7.40;;;4.60;;
54929;SDS011;40833;53.238;6.576;2022-07-05T03:39:16;4.43;;;4.03;;
54929;SDS011;40833;53.238;6.576;2022-07-05T03:41:41;12.07;;;4.40;;
54929;SDS011;40833;53.238;6.576;2022-07-05T03:44:07;6.43;;;4.50;;
54929;SDS011;40833;53.238;6.576;2022-07-05T03:46:33;4.87;;;4.37;;
54929;SDS011;40833;53.238;6.576;2022-07-05T03:48:58;7.60;;;4.63;;
54929;SDS011;40833;53.238;6.576;2022-07-05T03:51:24;4.67;;;4.00;;
54929;SDS011;40833;53.238;6.576;2022-07-05T03:53:50;5.40;;;4.30;;
54929;SDS011;40833;53.238;6.576;2022-07-05T03:56:15;8.90;;;4.60;;
54929;SDS011;40833;53.238;6.576;2022-07-05T03:58:46;4.80;;;4.20;;
54929;SDS011;40833;53.238;6.576;2022-07-05T04:01:12;6.43;;;4.67;;
54929;SDS011;40833;53.238;6.576;2022-07-05T04:03:38;8.90;;;4.40;;
54929;SDS011;40833;53.238;6.576;2022-07-05T04:06:03;7.17;;;4.47;;
54929;SDS011;40833;53.238;6.576;2022-07-05T04:08:29;6.27;;;4.57;;
54929;SDS011;40833;53.238;6.576;2022-07-05T04:10:55;8.83;;;4.57;;
54929;SDS011;40833;53.238;6.576;2022-07-05T04:13:21;8.33;;;4.43;;
54929;SDS011;40833;53.238;6.576;2022-07-05T04:15:46;6.90;;;4.40;;
54929;SDS011;40833;53.238;6.576;2022-07-05T04:18:12;5.13;;;4.00;;
54929;SDS011;40833;53.238;6.576;2022-07-05T04:20:37;8.23;;;4.43;;
54929;SDS011;40833;53.238;6.576;2022-07-05T04:23:03;5.17;;;4.27;;
54929;SDS011;40833;53.238;6.576;2022-07-05T04:25:29;6.90;;;4.47;;
54929;SDS011;40833;53.238;6.576;2022-07-05T04:27:55;12.50;;;5.10;;
54929;SDS011;40833;53.238;6.576;2022-07-05T04:30:24;6.83;;;3.97;;
54929;SDS011;40833;53.238;6.576;2022-07-05T04:32:51;5.90;;;4.40;;
54929;SDS011;40833;53.238;6.576;2022-07-05T04:35:16;11.03;;;4.73;;
54929;SDS011;40833;53.238;6.576;2022-07-05T04:37:42;6.07;;;4.00;;
54929;SDS011;40833;53.238;6.576;2022-07-05T04:40:09;4.33;;;3.93;;
54929;SDS011;40833;53.238;6.576;2022-07-05T04:42:36;7.33;;;4.60;;
54929;SDS011;40833;53.238;6.576;2022-07-05T04:45:02;8.00;;;4.13;;
54929;SDS011;40833;53.238;6.576;2022-07-05T04:47:29;7.40;;;3.90;;
54929;SDS011;40833;53.238;6.576;2022-07-05T04:49:55;9.03;;;3.53;;
54929;SDS011;40833;53.238;6.576;2022-07-05T04:52:24;3.53;;;2.97;;
54929;SDS011;40833;53.238;6.576;2022-07-05T04:54:50;8.73;;;3.63;;
54929;SDS011;40833;53.238;6.576;2022-07-05T04:57:16;3.80;;;3.30;;
54929;SDS011;40833;53.238;6.576;2022-07-05T04:59:42;5.77;;;3.43;;
54929;SDS011;40833;53.238;6.576;2022-07-05T05:02:08;5.30;;;3.03;;
54929;SDS011;40833;53.238;6.576;2022-07-05T05:04:33;3.30;;;2.80;;
54929;SDS011;40833;53.238;6.576;2022-07-05T05:06:59;6.17;;;3.00;;
54929;SDS011;40833;53.238;6.576;2022-07-05T05:09:25;5.93;;;2.80;;
54929;SDS011;40833;53.238;6.576;2022-07-05T05:11:50;5.93;;;2.93;;
54929;SDS011;40833;53.238;6.576;2022-07-05T05:14:16;7.07;;;3.00;;
54929;SDS011;40833;53.238;6.576;2022-07-05T05:16:41;7.03;;;2.80;;
54929;SDS011;40833;53.238;6.576;2022-07-05T05:19:07;2.33;;;2.13;;
54929;SDS011;40833;53.238;6.576;2022-07-05T05:21:33;3.27;;;2.50;;
54929;SDS011;40833;53.238;6.576;2022-07-05T05:23:59;3.53;;;2.50;;
54929;SDS011;40833;53.238;6.576;2022-07-05T05:26:25;9.30;;;2.80;;
54929;SDS011;40833;53.238;6.576;2022-07-05T05:28:51;8.40;;;2.80;;
54929;SDS011;40833;53.238;6.576;2022-07-05T05:31:17;4.67;;;2.57;;
54929;SDS011;40833;53.238;6.576;2022-07-05T05:33:43;4.20;;;2.20;;
54929;SDS011;40833;53.238;6.576;2022-07-05T05:36:09;5.63;;;2.20;;
54929;SDS011;40833;53.238;6.576;2022-07-05T05:38:35;5.07;;;2.40;;
54929;SDS011;40833;53.238;6.576;2022-07-05T05:41:01;4.43;;;2.20;;
54929;SDS011;40833;53.238;6.576;2022-07-05T05:43:27;5.00;;;2.40;;
54929;SDS011;40833;53.238;6.576;2022-07-05T05:45:52;14.50;;;2.50;;
54929;SDS011;40833;53.238;6.576;2022-07-05T05:48:18;4.50;;;2.10;;
54929;SDS011;40833;53.238;6.576;2022-07-05T05:50:45;6.93;;;2.43;;
54929;SDS011;40833;53.238;6.576;2022-07-05T05:53:11;6.27;;;2.17;;
54929;SDS011;40833;53.238;6.576;2022-07-05T05:55:37;8.37;;;2.03;;
54929;SDS011;40833;53.238;6.576;2022-07-05T05:58:13;5.83;;;2.00;;
54929;SDS011;40833;53.238;6.576;2022-07-05T06:00:39;3.40;;;1.47;;
54929;SDS011;40833;53.238;6.576;2022-07-05T06:03:05;7.93;;;1.63;;
54929;SDS011;40833;53.238;6.576;2022-07-05T06:05:31;7.03;;;3.67;;
54929;SDS011;40833;53.238;6.576;2022-07-05T06:07:57;8.57;;;1.80;;
54929;SDS011;40833;53.238;6.576;2022-07-05T06:12:50;7.30;;;1.50;;
54929;SDS011;40833;53.238;6.576;2022-07-05T06:15:17;4.47;;;1.50;;
54929;SDS011;40833;53.238;6.576;2022-07-05T06:17:43;5.93;;;1.63;;
54929;SDS011;40833;53.238;6.576;2022-07-05T06:20:10;4.23;;;0.93;;
54929;SDS011;40833;53.238;6.576;2022-07-05T06:22:38;5.63;;;1.33;;
54929;SDS011;40833;53.238;6.576;2022-07-05T06:25:04;7.33;;;0.57;;
54929;SDS011;40833;53.238;6.576;2022-07-05T06:27:31;4.20;;;0.47;;
54929;SDS011;40833;53.238;6.576;2022-07-05T06:29:57;2.73;;;0.43;;
54929;SDS011;40833;53.238;6.576;2022-07-05T06:32:23;7.47;;;0.60;;
54929;SDS011;40833;53.238;6.576;2022-07-05T06:34:49;6.97;;;1.03;;
54929;SDS011;40833;53.238;6.576;2022-07-05T06:37:15;3.97;;;0.40;;
54929;SDS011;40833;53.238;6.576;2022-07-05T06:39:40;9.20;;;0.73;;
54929;SDS011;40833;53.238;6.576;2022-07-05T06:42:06;7.33;;;0.50;;
54929;SDS011;40833;53.238;6.576;2022-07-05T06:44:32;3.50;;;0.50;;
54929;SDS011;40833;53.238;6.576;2022-07-05T06:46:58;8.67;;;0.50;;
54929;SDS011;40833;53.238;6.576;2022-07-05T06:49:24;2.73;;;0.53;;
54929;SDS011;40833;53.238;6.576;2022-07-05T06:51:49;4.07;;;0.30;;
54929;SDS011;40833;53.238;6.576;2022-07-05T06:54:15;8.37;;;0.60;;
54929;SDS011;40833;53.238;6.576;2022-07-05T06:56:41;4.70;;;0.40;;
54929;SDS011;40833;53.238;6.576;2022-07-05T06:59:06;3.80;;;0.33;;
54929;SDS011;40833;53.238;6.576;2022-07-05T07:01:32;8.13;;;0.50;;
54929;SDS011;40833;53.238;6.576;2022-07-05T07:03:57;2.90;;;0.37;;
54929;SDS011;40833;53.238;6.576;2022-07-05T07:06:23;6.37;;;0.40;;
54929;SDS011;40833;53.238;6.576;2022-07-05T07:08:49;5.83;;;0.33;;
54929;SDS011;40833;53.238;6.576;2022-07-05T07:11:33;3.17;;;0.30;;
54929;SDS011;40833;53.238;6.576;2022-07-05T07:13:59;5.60;;;0.53;;
54929;SDS011;40833;53.238;6.576;2022-07-05T07:16:24;5.33;;;0.30;;
54929;SDS011;40833;53.238;6.576;2022-07-05T07:18:50;5.40;;;0.30;;
54929;SDS011;40833;53.238;6.576;2022-07-05T07:21:16;3.53;;;0.43;;
54929;SDS011;40833;53.238;6.576;2022-07-05T07:23:42;4.57;;;0.50;;
54929;SDS011;40833;53.238;6.576;2022-07-05T07:26:07;9.20;;;0.40;;
54929;SDS011;40833;53.238;6.576;2022-07-05T07:28:33;8.80;;;0.30;;
54929;SDS011;40833;53.238;6.576;2022-07-05T07:30:59;7.60;;;0.57;;
54929;SDS011;40833;53.238;6.576;2022-07-05T07:33:24;3.53;;;0.20;;
54929;SDS011;40833;53.238;6.576;2022-07-05T07:35:50;3.53;;;0.35;;
54929;SDS011;40833;53.238;6.576;2022-07-05T07:38:16;4.43;;;0.20;;
54929;SDS011;40833;53.238;6.576;2022-07-05T07:40:41;7.20;;;0.30;;
54929;SDS011;40833;53.238;6.576;2022-07-05T07:43:07;4.43;;;0.32;;
54929;SDS011;40833;53.238;6.576;2022-07-05T07:45:33;7.32;;;0.30;;
54929;SDS011;40833;53.238;6.576;2022-07-05T07:47:58;5.43;;;0.30;;
54929;SDS011;40833;53.238;6.576;2022-07-05T07:50:24;5.63;;;0.32;;
54929;SDS011;40833;53.238;6.576;2022-07-05T07:52:50;6.03;;;0.30;;
54929;SDS011;40833;53.238;6.576;2022-07-05T07:55:15;3.42;;;0.20;;
54929;SDS011;40833;53.238;6.576;2022-07-05T07:57:41;5.10;;;0.20;;
54929;SDS011;40833;53.238;6.576;2022-07-05T08:00:07;2.15;;;0.25;;
54929;SDS011;40833;53.238;6.576;2022-07-05T08:02:33;2.25;;;0.20;;
54929;SDS011;40833;53.238;6.576;2022-07-05T08:04:59;5.45;;;0.30;;
54929;SDS011;40833;53.238;6.576;2022-07-05T08:07:25;6.88;;;0.25;;
54929;SDS011;40833;53.238;6.576;2022-07-05T08:09:51;5.40;;;0.45;;
54929;SDS011;40833;53.238;6.576;2022-07-05T08:12:18;3.35;;;0.25;;
54929;SDS011;40833;53.238;6.576;2022-07-05T08:14:44;3.13;;;0.30;;
54929;SDS011;40833;53.238;6.576;2022-07-05T08:17:11;4.47;;;0.35;;
54929;SDS011;40833;53.238;6.576;2022-07-05T08:19:38;2.92;;;0.30;;
54929;SDS011;40833;53.238;6.576;2022-07-05T08:22:22;5.13;;;0.50;;
54929;SDS011;40833;53.238;6.576;2022-07-05T08:24:48;2.80;;;0.35;;
54929;SDS011;40833;53.238;6.576;2022-07-05T08:27:14;3.50;;;0.25;;
54929;SDS011;40833;53.238;6.576;2022-07-05T08:29:41;4.63;;;0.10;;
54929;SDS011;40833;53.238;6.576;2022-07-05T08:32:07;3.13;;;0.10;;
54929;SDS011;40833;53.238;6.576;2022-07-05T08:34:33;6.28;;;0.38;;
54929;SDS011;40833;53.238;6.576;2022-07-05T08:36:59;3.08;;;0.40;;
54929;SDS011;40833;53.238;6.576;2022-07-05T08:39:25;6.00;;;0.25;;
54929;SDS011;40833;53.238;6.576;2022-07-05T08:41:52;7.20;;;0.30;;
54929;SDS011;40833;53.238;6.576;2022-07-05T08:44:20;6.13;;;0.57;;
54929;SDS011;40833;53.238;6.576;2022-07-05T08:46:47;13.02;;;0.70;;
54929;SDS011;40833;53.238;6.576;2022-07-05T08:49:15;7.07;;;0.35;;
54929;SDS011;40833;53.238;6.576;2022-07-05T08:51:45;14.43;;;1.13;;
54929;SDS011;40833;53.238;6.576;2022-07-05T08:54:12;4.22;;;0.30;;
54929;SDS011;40833;53.238;6.576;2022-07-05T08:56:39;2.90;;;0.32;;
54929;SDS011;40833;53.238;6.576;2022-07-05T08:59:06;2.38;;;0.43;;
54929;SDS011;40833;53.238;6.576;2022-07-05T09:01:32;4.05;;;0.43;;
54929;SDS011;40833;53.238;6.576;2022-07-05T09:04:06;6.80;;;0.43;;
54929;SDS011;40833;53.238;6.576;2022-07-05T09:06:36;7.38;;;0.50;;
54929;SDS011;40833;53.238;6.576;2022-07-05T09:09:04;5.95;;;0.40;;
54929;SDS011;40833;53.238;6.576;2022-07-05T09:11:37;2.45;;;0.17;;
54929;SDS011;40833;53.238;6.576;2022-07-05T09:14:15;8.05;;;0.38;;
54929;SDS011;40833;53.238;6.576;2022-07-05T09:16:44;2.17;;;0.20;;
54929;SDS011;40833;53.238;6.576;2022-07-05T09:19:10;2.65;;;0.10;;
54929;SDS011;40833;53.238;6.576;2022-07-05T09:21:36;4.75;;;0.20;;
54929;SDS011;40833;53.238;6.576;2022-07-05T09:24:05;3.80;;;0.32;;
54929;SDS011;40833;53.238;6.576;2022-07-05T09:26:40;8.20;;;0.50;;
54929;SDS011;40833;53.238;6.576;2022-07-05T09:29:14;4.10;;;0.38;;
54929;SDS011;40833;53.238;6.576;2022-07-05T09:31:45;4.57;;;0.73;;
54929;SDS011;40833;53.238;6.576;2022-07-05T09:34:12;5.07;;;0.40;;
54929;SDS011;40833;53.238;6.576;2022-07-05T09:36:56;2.38;;;0.20;;
54929;SDS011;40833;53.238;6.576;2022-07-05T09:44:56;4.03;;;0.30;;
54929;SDS011;40833;53.238;6.576;2022-07-05T09:47:28;6.55;;;0.50;;
54929;SDS011;40833;53.238;6.576;2022-07-05T09:49:55;7.22;;;0.40;;
54929;SDS011;40833;53.238;6.576;2022-07-05T09:57:50;2.92;;;0.20;;
54929;SDS011;40833;53.238;6.576;2022-07-05T10:00:17;5.07;;;0.28;;
54929;SDS011;40833;53.238;6.576;2022-07-05T10:05:16;3.20;;;0.45;;
54929;SDS011;40833;53.238;6.576;2022-07-05T10:07:49;4.68;;;0.30;;
54929;SDS011;40833;53.238;6.576;2022-07-05T10:10:18;3.55;;;0.32;;
54929;SDS011;40833;53.238;6.576;2022-07-05T10:12:51;5.15;;;0.65;;
54929;SDS011;40833;53.238;6.576;2022-07-05T10:15:25;1.23;;;0.32;;
54929;SDS011;40833;53.238;6.576;2022-07-05T10:23:05;2.58;;;0.43;;
54929;SDS011;40833;53.238;6.576;2022-07-05T10:25:33;4.50;;;0.20;;
54929;SDS011;40833;53.238;6.576;2022-07-05T10:28:00;4.72;;;0.40;;
54929;SDS011;40833;53.238;6.576;2022-07-05T10:30:27;5.15;;;0.35;;
54929;SDS011;40833;53.238;6.576;2022-07-05T10:32:53;6.47;;;0.35;;
54929;SDS011;40833;53.238;6.576;2022-07-05T10:35:20;3.13;;;0.20;;
54929;SDS011;40833;53.238;6.576;2022-07-05T10:37:47;4.13;;;0.70;;
54929;SDS011;40833;53.238;6.576;2022-07-05T10:40:14;2.53;;;0.20;;
54929;SDS011;40833;53.238;6.576;2022-07-05T10:42:48;4.78;;;0.52;;
54929;SDS011;40833;53.238;6.576;2022-07-05T10:53:26;2.58;;;0.20;;
54929;SDS011;40833;53.238;6.576;2022-07-05T10:56:10;1.77;;;0.20;;
54929;SDS011;40833;53.238;6.576;2022-07-05T10:58:37;2.53;;;0.30;;
54929;SDS011;40833;53.238;6.576;2022-07-05T11:03:48;5.85;;;0.40;;
54929;SDS011;40833;53.238;6.576;2022-07-05T11:06:30;3.55;;;0.55;;
54929;SDS011;40833;53.238;6.576;2022-07-05T11:13:51;3.53;;;0.40;;
54929;SDS011;40833;53.238;6.576;2022-07-05T11:16:31;1.52;;;0.28;;
54929;SDS011;40833;53.238;6.576;2022-07-05T11:21:34;2.35;;;0.17;;
54929;SDS011;40833;53.238;6.576;2022-07-05T11:24:20;9.38;;;0.30;;
54929;SDS011;40833;53.238;6.576;2022-07-05T11:26:48;1.60;;;0.20;;
54929;SDS011;40833;53.238;6.576;2022-07-05T11:32:06;7.88;;;0.15;;
54929;SDS011;40833;53.238;6.576;2022-07-05T11:34:33;4.70;;;0.28;;
54929;SDS011;40833;53.238;6.576;2022-07-05T11:42:56;2.85;;;0.30;;
54929;SDS011;40833;53.238;6.576;2022-07-05T11:45:22;5.05;;;0.32;;
54929;SDS011;40833;53.238;6.576;2022-07-05T11:47:48;6.93;;;0.60;;
54929;SDS011;40833;53.238;6.576;2022-07-05T11:50:13;6.47;;;0.93;;
54929;SDS011;40833;53.238;6.576;2022-07-05T11:52:39;4.00;;;0.30;;
54929;SDS011;40833;53.238;6.576;2022-07-05T11:55:07;4.38;;;0.28;;
54929;SDS011;40833;53.238;6.576;2022-07-05T11:57:34;3.33;;;0.30;;
54929;SDS011;40833;53.238;6.576;2022-07-05T11:59:59;7.03;;;0.73;;
54929;SDS011;40833;53.238;6.576;2022-07-05T12:02:25;5.82;;;0.65;;
54929;SDS011;40833;53.238;6.576;2022-07-05T12:04:52;6.38;;;0.45;;
54929;SDS011;40833;53.238;6.576;2022-07-05T12:09:54;2.55;;;0.38;;
54929;SDS011;40833;53.238;6.576;2022-07-05T12:12:39;5.20;;;0.50;;
54929;SDS011;40833;53.238;6.576;2022-07-05T12:15:10;4.35;;;0.30;;
54929;SDS011;40833;53.238;6.576;2022-07-05T12:17:40;4.47;;;0.40;;
54929;SDS011;40833;53.238;6.576;2022-07-05T12:20:08;3.78;;;0.35;;
54929;SDS011;40833;53.238;6.576;2022-07-05T12:22:40;2.80;;;0.40;;
54929;SDS011;40833;53.238;6.576;2022-07-05T12:25:08;6.28;;;0.40;;
54929;SDS011;40833;53.238;6.576;2022-07-05T12:27:37;7.45;;;0.40;;
54929;SDS011;40833;53.238;6.576;2022-07-05T12:30:04;6.40;;;0.85;;
54929;SDS011;40833;53.238;6.576;2022-07-05T12:32:31;1.42;;;0.15;;
54929;SDS011;40833;53.238;6.576;2022-07-05T12:34:58;3.70;;;0.35;;
54929;SDS011;40833;53.238;6.576;2022-07-05T12:37:24;5.00;;;0.30;;
54929;SDS011;40833;53.238;6.576;2022-07-05T12:40:07;3.75;;;0.30;;
54929;SDS011;40833;53.238;6.576;2022-07-05T12:42:36;5.25;;;0.28;;
54929;SDS011;40833;53.238;6.576;2022-07-05T12:45:12;6.00;;;0.32;;
54929;SDS011;40833;53.238;6.576;2022-07-05T12:47:51;2.53;;;0.17;;
54929;SDS011;40833;53.238;6.576;2022-07-05T12:50:25;4.72;;;0.28;;
54929;SDS011;40833;53.238;6.576;2022-07-05T12:55:33;6.32;;;0.28;;
54929;SDS011;40833;53.238;6.576;2022-07-05T12:58:18;1.23;;;0.10;;
54929;SDS011;40833;53.238;6.576;2022-07-05T13:00:43;2.55;;;0.32;;
54929;SDS011;40833;53.238;6.576;2022-07-05T13:03:09;5.25;;;0.20;;
54929;SDS011;40833;53.238;6.576;2022-07-05T13:05:35;5.68;;;0.20;;
54929;SDS011;40833;53.238;6.576;2022-07-05T13:08:01;4.30;;;0.30;;
54929;SDS011;40833;53.238;6.576;2022-07-05T13:10:27;4.70;;;0.38;;
54929;SDS011;40833;53.238;6.576;2022-07-05T13:12:57;0.98;;;0.20;;
54929;SDS011;40833;53.238;6.576;2022-07-05T13:15:23;3.03;;;0.15;;
54929;SDS011;40833;53.238;6.576;2022-07-05T13:17:49;4.40;;;0.30;;
54929;SDS011;40833;53.238;6.576;2022-07-05T13:20:16;2.53;;;0.20;;
54929;SDS011;40833;53.238;6.576;2022-07-05T13:22:43;4.55;;;0.20;;
54929;SDS011;40833;53.238;6.576;2022-07-05T13:25:09;3.20;;;0.40;;
54929;SDS011;40833;53.238;6.576;2022-07-05T13:27:37;3.47;;;0.30;;
54929;SDS011;40833;53.238;6.576;2022-07-05T13:30:04;3.20;;;0.63;;
54929;SDS011;40833;53.238;6.576;2022-07-05T13:32:30;1.80;;;0.30;;
54929;SDS011;40833;53.238;6.576;2022-07-05T13:34:56;1.55;;;0.20;;
54929;SDS011;40833;53.238;6.576;2022-07-05T13:37:22;3.15;;;0.13;;
54929;SDS011;40833;53.238;6.576;2022-07-05T13:39:49;1.58;;;0.20;;
54929;SDS011;40833;53.238;6.576;2022-07-05T13:42:14;2.05;;;0.30;;
54929;SDS011;40833;53.238;6.576;2022-07-05T13:44:40;3.70;;;0.28;;
54929;SDS011;40833;53.238;6.576;2022-07-05T13:47:06;3.72;;;0.20;;
54929;SDS011;40833;53.238;6.576;2022-07-05T13:49:32;2.90;;;0.20;;
54929;SDS011;40833;53.238;6.576;2022-07-05T13:51:58;0.93;;;0.25;;
54929;SDS011;40833;53.238;6.576;2022-07-05T13:54:26;3.45;;;0.50;;
54929;SDS011;40833;53.238;6.576;2022-07-05T13:56:53;5.03;;;0.30;;
54929;SDS011;40833;53.238;6.576;2022-07-05T13:59:19;3.15;;;0.30;;
54929;SDS011;40833;53.238;6.576;2022-07-05T14:01:44;2.90;;;0.30;;
54929;SDS011;40833;53.238;6.576;2022-07-05T14:04:11;4.75;;;0.20;;
54929;SDS011;40833;53.238;6.576;2022-07-05T14:06:36;5.93;;;0.47;;
54929;SDS011;40833;53.238;6.576;2022-07-05T14:09:03;7.07;;;0.38;;
54929;SDS011;40833;53.238;6.576;2022-07-05T14:11:29;3.25;;;0.20;;
54929;SDS011;40833;53.238;6.576;2022-07-05T14:13:55;7.07;;;0.57;;
54929;SDS011;40833;53.238;6.576;2022-07-05T14:16:22;1.30;;;0.20;;
54929;SDS011;40833;53.238;6.576;2022-07-05T14:18:48;1.65;;;0.20;;
54929;SDS011;40833;53.238;6.576;2022-07-05T14:21:15;2.25;;;0.30;;
54929;SDS011;40833;53.238;6.576;2022-07-05T14:23:42;3.80;;;0.13;;
54929;SDS011;40833;53.238;6.576;2022-07-05T14:26:11;1.40;;;0.20;;
54929;SDS011;40833;53.238;6.576;2022-07-05T14:28:37;1.98;;;0.30;;
54929;SDS011;40833;53.238;6.576;2022-07-05T14:31:03;6.07;;;0.43;;
54929;SDS011;40833;53.238;6.576;2022-07-05T14:33:29;4.22;;;0.52;;
54929;SDS011;40833;53.238;6.576;2022-07-05T14:35:55;1.75;;;0.20;;
54929;SDS011;40833;53.238;6.576;2022-07-05T14:38:20;2.75;;;0.30;;
54929;SDS011;40833;53.238;6.576;2022-07-05T14:40:46;3.42;;;0.28;;
54929;SDS011;40833;53.238;6.576;2022-07-05T14:43:12;3.38;;;0.38;;
54929;SDS011;40833;53.238;6.576;2022-07-05T14:45:37;0.90;;;0.10;;
54929;SDS011;40833;53.238;6.576;2022-07-05T14:48:03;1.75;;;0.10;;
54929;SDS011;40833;53.238;6.576;2022-07-05T14:50:29;1.58;;;0.13;;
54929;SDS011;40833;53.238;6.576;2022-07-05T14:52:55;3.72;;;0.30;;
54929;SDS011;40833;53.238;6.576;2022-07-05T14:55:20;2.35;;;0.20;;
54929;SDS011;40833;53.238;6.576;2022-07-05T14:57:46;1.85;;;0.20;;
54929;SDS011;40833;53.238;6.576;2022-07-05T15:00:13;6.70;;;0.22;;
54929;SDS011;40833;53.238;6.576;2022-07-05T15:02:40;1.48;;;0.28;;
54929;SDS011;40833;53.238;6.576;2022-07-05T15:05:07;2.55;;;0.22;;
54929;SDS011;40833;53.238;6.576;2022-07-05T15:07:34;0.77;;;0.20;;
54929;SDS011;40833;53.238;6.576;2022-07-05T15:10:00;2.35;;;0.17;;
54929;SDS011;40833;53.238;6.576;2022-07-05T15:12:26;2.95;;;0.55;;
54929;SDS011;40833;53.238;6.576;2022-07-05T15:14:52;4.57;;;0.30;;
54929;SDS011;40833;53.238;6.576;2022-07-05T15:17:17;1.75;;;0.20;;
54929;SDS011;40833;53.238;6.576;2022-07-05T15:19:43;3.20;;;0.25;;
54929;SDS011;40833;53.238;6.576;2022-07-05T15:22:09;4.15;;;0.35;;
54929;SDS011;40833;53.238;6.576;2022-07-05T15:24:37;4.45;;;0.47;;
54929;SDS011;40833;53.238;6.576;2022-07-05T15:27:03;2.67;;;0.10;;
54929;SDS011;40833;53.238;6.576;2022-07-05T15:29:30;3.03;;;0.10;;
54929;SDS011;40833;53.238;6.576;2022-07-05T15:31:56;3.17;;;0.20;;
54929;SDS011;40833;53.238;6.576;2022-07-05T15:34:23;3.35;;;0.20;;
54929;SDS011;40833;53.238;6.576;2022-07-05T15:36:50;2.05;;;0.17;;
54929;SDS011;40833;53.238;6.576;2022-07-05T15:39:16;2.97;;;0.20;;
54929;SDS011;40833;53.238;6.576;2022-07-05T15:41:42;2.00;;;0.20;;
54929;SDS011;40833;53.238;6.576;2022-07-05T15:44:08;1.75;;;0.17;;